Terminal Aerodrome Forecast
Issued by NWS

Home | Current Version | Previous Version | Text Only | Print | Product List | Glossary Off
Versions: 1 2 3 4 5 6 7 8 9 10 11 12 13

000
FTUS43 KIWX 280536
TAFSBN
TAF
KSBN 280536Z 2806/2906 25010KT P6SM SCT030 BKN250
     FM281000 18006KT P6SM SCT025 OVC040
     FM282200 14010KT P6SM VCSH OVC060
      TEMPO 2900/2904 6SM -SHRA OVC025=

USA.gov is the U.S. government's official web portal to all federal, state and local government web resources and services.